createdAt,value
2018-04-22T00:01:04.856Z,13.97
2018-04-22T00:03:33.103Z,13.73
2018-04-22T00:06:00.633Z,14.87
2018-04-22T00:08:28.108Z,14.70
2018-04-22T00:10:55.613Z,15.43
2018-04-22T00:13:23.841Z,15.27
2018-04-22T00:15:51.328Z,15.90
2018-04-22T00:18:19.152Z,15.43
2018-04-22T00:20:46.623Z,15.37
2018-04-22T00:23:14.108Z,15.63
2018-04-22T00:25:41.589Z,15.30
2018-04-22T00:28:09.075Z,16.80
2018-04-22T00:30:36.553Z,16.50
2018-04-22T00:33:04.036Z,17.13
2018-04-22T00:35:31.511Z,15.57
2018-04-22T00:37:59.758Z,16.40
2018-04-22T00:40:27.242Z,17.17
2018-04-22T00:42:54.724Z,15.53
2018-04-22T00:45:22.202Z,15.83
2018-04-22T00:47:49.682Z,15.60
2018-04-22T00:50:17.155Z,15.77
2018-04-22T00:52:44.632Z,17.60
2018-04-22T00:55:12.864Z,18.13
2018-04-22T00:57:40.368Z,16.53
2018-04-22T01:00:08.591Z,17.20
2018-04-22T01:02:36.086Z,16.60
2018-04-22T01:05:04.323Z,17.63
2018-04-22T01:07:31.817Z,16.13
2018-04-22T01:10:00.126Z,16.10
2018-04-22T01:12:27.606Z,15.70
2018-04-22T01:14:55.110Z,16.77
2018-04-22T01:17:23.356Z,16.60
2018-04-22T01:19:50.833Z,15.80
2018-04-22T01:22:18.321Z,16.53
2018-04-22T01:24:45.832Z,16.00
2018-04-22T01:27:13.303Z,16.90
2018-04-22T01:29:42.296Z,15.80
2018-04-22T01:32:09.779Z,16.80
2018-04-22T01:34:38.033Z,16.97
2018-04-22T01:37:05.496Z,15.60
2018-04-22T01:39:33.744Z,17.00
2018-04-22T01:42:01.228Z,18.27
2018-04-22T01:44:28.703Z,15.90
2018-04-22T01:46:56.948Z,16.20
2018-04-22T01:49:25.223Z,16.77
2018-04-22T01:51:52.666Z,15.80
2018-04-22T01:54:20.361Z,16.43
2018-04-22T01:56:48.591Z,16.33
2018-04-22T01:59:16.072Z,16.53
2018-04-22T02:01:43.543Z,15.43
2018-04-22T02:04:11.033Z,15.10
2018-04-22T02:06:38.510Z,16.03
2018-04-22T02:09:06.000Z,15.50
2018-04-22T02:11:33.467Z,16.10
2018-04-22T02:14:00.960Z,15.90
2018-04-22T02:16:28.450Z,17.63
2018-04-22T02:18:55.944Z,17.80
2018-04-22T02:21:23.534Z,15.80
2018-04-22T02:23:51.029Z,15.73
2018-04-22T02:26:18.514Z,16.27
2018-04-22T02:28:46.005Z,16.57
2018-04-22T02:31:14.249Z,16.13
2018-04-22T02:33:41.733Z,17.03
2018-04-22T02:36:09.216Z,18.10
2018-04-22T02:38:36.695Z,17.40
2018-04-22T02:41:04.184Z,17.37
2018-04-22T02:43:32.465Z,17.57
2018-04-22T02:45:59.908Z,18.70
2018-04-22T02:48:28.897Z,18.13
2018-04-22T02:50:56.383Z,17.43
2018-04-22T02:53:24.796Z,17.90
2018-04-22T02:55:52.279Z,18.43
2018-04-22T02:58:19.752Z,17.80
2018-04-22T03:00:47.310Z,17.80
2018-04-22T03:03:14.776Z,20.13
2018-04-22T03:05:43.044Z,18.50
2018-04-22T03:08:10.524Z,17.50
2018-04-22T03:10:38.775Z,18.53
2018-04-22T03:13:06.249Z,17.70
2018-04-22T03:15:34.504Z,17.73
2018-04-22T03:18:01.985Z,18.43
2018-04-22T03:20:30.226Z,17.50
2018-04-22T03:22:57.720Z,17.60
2018-04-22T03:25:25.974Z,18.57
2018-04-22T03:27:53.457Z,16.70
2018-04-22T03:30:20.955Z,18.63
2018-04-22T03:32:48.445Z,17.40
2018-04-22T03:35:15.908Z,17.20
2018-04-22T03:37:43.416Z,18.77
2018-04-22T03:40:10.884Z,16.83
2018-04-22T03:42:38.355Z,17.60
2018-04-22T03:45:05.839Z,16.70
2018-04-22T03:47:34.105Z,18.57
2018-04-22T03:50:01.593Z,18.27
2018-04-22T03:52:29.056Z,16.50
2018-04-22T03:54:56.547Z,16.30
2018-04-22T03:57:24.020Z,17.47
2018-04-22T03:59:51.506Z,17.13
2018-04-22T04:02:19.851Z,18.17
2018-04-22T04:04:47.343Z,18.83
2018-04-22T04:07:15.763Z,18.83
2018-04-22T04:09:43.264Z,18.63
2018-04-22T04:12:10.732Z,18.03
2018-04-22T04:14:38.978Z,18.93
2018-04-22T04:17:07.971Z,18.20
2018-04-22T04:19:47.201Z,18.70
2018-04-22T04:22:27.440Z,18.07
2018-04-22T04:25:21.899Z,18.87
2018-04-22T04:27:50.165Z,18.27
2018-04-22T04:30:18.444Z,17.50
2018-04-22T04:32:46.688Z,19.10
2018-04-22T04:35:14.162Z,17.63
2018-04-22T04:37:42.432Z,18.10
2018-04-22T04:40:09.882Z,17.27
2018-04-22T04:42:37.358Z,17.67
2018-04-22T04:45:05.596Z,17.50
2018-04-22T04:47:33.066Z,18.00
2018-04-22T04:50:00.558Z,18.20
2018-04-22T04:52:28.195Z,17.60
2018-04-22T04:54:55.676Z,19.07
2018-04-22T04:57:23.167Z,18.23
2018-04-22T04:59:50.648Z,19.50
2018-04-22T05:02:18.139Z,20.57
2018-04-22T05:04:46.376Z,19.80
2018-04-22T05:07:13.864Z,19.27
2018-04-22T05:09:41.330Z,19.83
2018-04-22T05:12:09.579Z,19.60
2018-04-22T05:14:37.064Z,21.67
2018-04-22T05:17:05.322Z,20.60
2018-04-22T05:19:34.312Z,20.00
2018-04-22T05:22:01.796Z,19.90
2018-04-22T05:24:30.424Z,20.90
2018-04-22T05:26:57.894Z,19.70
2018-04-22T05:29:25.576Z,21.10
2018-04-22T05:31:53.063Z,21.07
2018-04-22T05:34:20.524Z,21.90
2018-04-22T05:36:48.018Z,21.37
2018-04-22T05:39:20.607Z,21.90
2018-04-22T05:41:48.118Z,21.20
2018-04-22T05:44:16.337Z,23.80
2018-04-22T05:46:43.820Z,22.43
2018-04-22T05:49:12.075Z,20.80
2018-04-22T05:51:39.561Z,22.97
2018-04-22T05:54:07.800Z,22.47
2018-04-22T05:56:35.291Z,20.40
2018-04-22T05:59:03.627Z,22.10
2018-04-22T06:01:31.629Z,22.80
2018-04-22T06:03:59.968Z,20.93
2018-04-22T06:06:27.465Z,22.50
2018-04-22T06:08:55.016Z,21.47
2018-04-22T06:11:22.608Z,22.63
2018-04-22T06:13:50.102Z,22.53
2018-04-22T06:16:17.574Z,24.10
2018-04-22T06:18:45.113Z,21.90
2018-04-22T06:21:12.667Z,22.63
2018-04-22T06:23:40.251Z,21.27
2018-04-22T06:26:07.738Z,22.50
2018-04-22T06:28:35.287Z,23.07
2018-04-22T06:31:03.661Z,21.60
2018-04-22T06:33:31.669Z,22.63
2018-04-22T06:38:34.414Z,22.43
2018-04-22T06:41:01.895Z,23.30
2018-04-22T06:43:30.175Z,22.40
2018-04-22T06:45:58.452Z,24.40
2018-04-22T06:48:26.804Z,23.90
2018-04-22T06:50:55.172Z,22.70
2018-04-22T06:53:22.716Z,23.70
2018-04-22T06:55:50.233Z,23.53
2018-04-22T06:58:18.504Z,24.30
2018-04-22T07:00:46.157Z,22.80
2018-04-22T07:03:13.724Z,21.80
2018-04-22T07:05:42.217Z,23.20
2018-04-22T07:08:10.497Z,24.40
2018-04-22T07:10:37.981Z,22.90
2018-04-22T07:13:05.508Z,24.00
2018-04-22T07:15:34.039Z,23.80
2018-04-22T07:18:01.590Z,24.00
2018-04-22T07:20:29.247Z,23.10
2018-04-22T07:22:56.802Z,23.07
2018-04-22T07:25:24.350Z,22.77
2018-04-22T07:27:51.849Z,22.77
2018-04-22T07:30:19.355Z,22.93
2018-04-22T07:32:46.879Z,22.90
2018-04-22T07:35:14.535Z,22.83
2018-04-22T07:37:42.854Z,24.13
2018-04-22T07:40:10.398Z,22.30
2018-04-22T07:42:38.758Z,24.20
2018-04-22T07:45:06.574Z,21.63
2018-04-22T07:47:34.338Z,22.53
2018-04-22T07:50:02.230Z,22.10
2018-04-22T07:52:30.599Z,22.20
2018-04-22T07:54:58.093Z,22.83
2018-04-22T07:57:26.380Z,21.03
2018-04-22T07:59:53.898Z,22.60
2018-04-22T08:02:22.361Z,23.83
2018-04-22T08:04:50.037Z,20.00
2018-04-22T08:07:17.611Z,21.83
2018-04-22T08:09:45.293Z,22.30
2018-04-22T08:12:13.232Z,19.80
2018-04-22T08:14:41.085Z,21.37
2018-04-22T08:17:08.807Z,20.40
2018-04-22T08:19:37.623Z,22.20
2018-04-22T08:22:05.558Z,21.40
2018-04-22T08:24:33.885Z,22.37
2018-04-22T08:27:01.761Z,19.80
2018-04-22T08:29:30.090Z,19.20
2018-04-22T08:31:57.731Z,20.00
2018-04-22T08:34:26.126Z,19.10
2018-04-22T08:36:53.857Z,19.10
2018-04-22T08:39:22.883Z,19.90
2018-04-22T08:41:51.269Z,19.90
2018-04-22T08:44:18.889Z,18.40
2018-04-22T08:46:47.292Z,20.00
2018-04-22T08:49:15.114Z,18.97
2018-04-22T08:51:42.814Z,19.27
2018-04-22T08:54:10.461Z,17.87
2018-04-22T08:56:38.397Z,16.77
2018-04-22T08:59:05.961Z,17.83
2018-04-22T09:01:33.604Z,19.20
2018-04-22T09:04:01.150Z,18.33
2018-04-22T09:06:28.706Z,16.80
2018-04-22T09:08:56.238Z,14.73
2018-04-22T09:11:24.598Z,14.93
2018-04-22T09:13:52.218Z,15.90
2018-04-22T09:16:19.825Z,16.23
2018-04-22T09:18:48.090Z,14.63
2018-04-22T09:21:15.890Z,15.90
2018-04-22T09:23:44.228Z,14.90
2018-04-22T09:26:11.968Z,16.23
2018-04-22T09:28:40.349Z,16.63
2018-04-22T09:31:08.089Z,18.00
2018-04-22T09:33:35.619Z,17.00
2018-04-22T09:36:03.267Z,15.40
2018-04-22T09:38:30.751Z,14.90
2018-04-22T09:40:59.041Z,15.87
2018-04-22T09:43:26.599Z,15.63
2018-04-22T09:45:54.398Z,15.47
2018-04-22T09:48:21.967Z,15.87
2018-04-22T09:50:49.570Z,15.87
2018-04-22T09:53:17.115Z,16.63
2018-04-22T09:55:45.427Z,14.30
2018-04-22T09:58:13.005Z,15.40
2018-04-22T10:00:40.973Z,16.60
2018-04-22T10:03:09.498Z,15.17
2018-04-22T10:05:42.747Z,15.53
2018-04-22T10:08:10.292Z,15.47
2018-04-22T10:10:37.811Z,13.47
2018-04-22T10:13:06.162Z,13.80
2018-04-22T10:15:33.884Z,12.47
2018-04-22T10:18:01.491Z,12.03
2018-04-22T10:20:29.975Z,12.40
2018-04-22T10:22:57.504Z,12.90
2018-04-22T10:25:25.112Z,13.30
2018-04-22T10:27:52.661Z,12.07
2018-04-22T10:30:20.189Z,10.53
2018-04-22T10:32:47.695Z,9.63
2018-04-22T10:35:15.319Z,9.40
2018-04-22T10:37:43.601Z,10.50
2018-04-22T10:40:11.200Z,8.50
2018-04-22T10:42:39.655Z,8.60
2018-04-22T10:45:08.265Z,10.63
2018-04-22T10:47:35.860Z,8.30
2018-04-22T10:50:03.475Z,8.57
2018-04-22T10:52:31.113Z,7.20
2018-04-22T10:54:59.382Z,7.97
2018-04-22T10:57:26.947Z,8.50
2018-04-22T10:59:54.578Z,8.90
2018-04-22T11:02:22.143Z,8.40
2018-04-22T11:04:49.732Z,9.20
2018-04-22T11:07:17.293Z,8.37
2018-04-22T11:09:44.775Z,7.07
2018-04-22T11:12:12.289Z,8.30
2018-04-22T11:14:40.001Z,8.10
2018-04-22T11:17:12.309Z,7.97
2018-04-22T11:19:39.838Z,6.77
2018-04-22T11:22:07.559Z,6.70
2018-04-22T11:24:35.920Z,8.40
2018-04-22T11:27:03.445Z,8.20
2018-04-22T11:29:31.072Z,7.50
2018-04-22T11:31:59.343Z,7.37
2018-04-22T11:34:26.902Z,6.90
2018-04-22T11:36:54.441Z,7.67
2018-04-22T11:39:21.920Z,6.90
2018-04-22T11:41:49.472Z,7.30
2018-04-22T11:44:16.948Z,7.83
2018-04-22T11:46:45.188Z,7.87
2018-04-22T11:49:12.803Z,6.33
2018-04-22T11:51:41.086Z,5.60
2018-04-22T11:54:08.696Z,5.97
2018-04-22T11:56:36.444Z,6.70
2018-04-22T11:59:03.999Z,6.77
2018-04-22T12:01:31.552Z,6.00
2018-04-22T12:03:59.059Z,5.97
2018-04-22T12:06:27.306Z,7.53
2018-04-22T12:08:54.928Z,5.93
2018-04-22T12:11:22.399Z,5.40
2018-04-22T12:13:49.882Z,5.13
2018-04-22T12:16:18.872Z,5.67
2018-04-22T12:18:47.103Z,6.10
2018-04-22T12:21:14.579Z,6.30
2018-04-22T12:23:42.277Z,6.00
2018-04-22T12:26:09.756Z,5.97
2018-04-22T12:28:38.105Z,5.60
2018-04-22T12:31:05.602Z,6.40
2018-04-22T12:33:33.076Z,6.67
2018-04-22T12:36:00.603Z,5.27
2018-04-22T12:38:28.875Z,5.40
2018-04-22T12:40:57.128Z,5.90
2018-04-22T12:43:25.381Z,6.33
2018-04-22T12:45:52.876Z,5.57
2018-04-22T12:48:20.363Z,5.67
2018-04-22T12:50:47.864Z,6.10
2018-04-22T12:53:15.335Z,5.70
2018-04-22T12:55:42.826Z,5.70
2018-04-22T12:58:10.338Z,6.87
2018-04-22T13:00:37.969Z,6.23
2018-04-22T13:03:05.506Z,5.80
2018-04-22T13:05:32.984Z,5.93
2018-04-22T13:08:00.599Z,6.53
2018-04-22T13:10:28.132Z,10.50
2018-04-22T13:12:55.630Z,11.67
2018-04-22T13:15:23.859Z,12.80
2018-04-22T13:17:51.352Z,12.27
2018-04-22T13:20:19.618Z,13.63
2018-04-22T13:22:47.162Z,13.90
2018-04-22T13:25:14.692Z,15.13
2018-04-22T13:27:42.240Z,13.53
2018-04-22T13:30:09.769Z,12.80
2018-04-22T13:32:38.030Z,13.50
2018-04-22T13:35:05.494Z,15.33
2018-04-22T13:37:33.772Z,15.10
2018-04-22T13:40:02.106Z,16.00
2018-04-22T13:42:29.583Z,12.77
2018-04-22T13:44:57.072Z,11.17
2018-04-22T13:47:25.350Z,12.70
2018-04-22T13:49:53.587Z,13.30
2018-04-22T13:52:21.150Z,14.30
2018-04-22T13:54:50.154Z,16.03
2018-04-22T13:57:18.463Z,14.93
2018-04-22T13:59:47.245Z,13.37
2018-04-22T14:02:14.805Z,11.50
2018-04-22T14:04:43.114Z,11.57
2018-04-22T14:07:10.640Z,11.77
2018-04-22T14:09:38.978Z,12.00
2018-04-22T14:12:06.508Z,13.40
2018-04-22T14:14:34.101Z,11.97
2018-04-22T14:17:01.573Z,10.70
2018-04-22T14:19:29.099Z,10.63
2018-04-22T14:21:56.581Z,10.90
2018-04-22T14:24:24.071Z,10.20
2018-04-22T14:26:55.793Z,10.43
2018-04-22T14:29:24.319Z,9.90
2018-04-22T14:31:51.860Z,8.83
2018-04-22T14:34:19.368Z,8.00
2018-04-22T14:36:46.892Z,8.67
2018-04-22T14:39:15.499Z,7.83
2018-04-22T14:41:43.034Z,7.30
2018-04-22T14:44:22.443Z,5.67
2018-04-22T14:46:50.712Z,6.00
2018-04-22T14:49:19.389Z,7.30
2018-04-22T14:51:47.907Z,6.90
2018-04-22T14:54:15.414Z,8.10
2018-04-22T14:56:43.682Z,6.17
2018-04-22T14:59:11.216Z,5.90
2018-04-22T15:01:38.790Z,5.80
2018-04-22T15:04:06.283Z,5.20
2018-04-22T15:06:33.750Z,4.77
2018-04-22T15:09:02.005Z,5.00
2018-04-22T15:11:29.522Z,5.87
2018-04-22T15:13:57.105Z,5.57
2018-04-22T15:16:24.614Z,5.50
2018-04-22T15:18:52.880Z,7.50
2018-04-22T15:21:21.125Z,6.30
2018-04-22T15:23:49.821Z,6.37
2018-04-22T15:26:18.209Z,5.53
2018-04-22T15:28:46.558Z,5.93
2018-04-22T15:31:14.095Z,6.50
2018-04-22T15:33:41.507Z,5.63
2018-04-22T15:36:09.936Z,5.37
2018-04-22T15:38:37.559Z,5.60
2018-04-22T15:41:05.126Z,5.53
2018-04-22T15:43:32.640Z,4.80
2018-04-22T15:46:01.208Z,5.33
2018-04-22T15:48:28.723Z,6.23
2018-04-22T15:50:56.231Z,6.07
2018-04-22T15:53:23.946Z,6.93
2018-04-22T15:55:52.368Z,6.60
2018-04-22T15:58:19.981Z,7.30
2018-04-22T16:00:47.480Z,7.17
2018-04-22T16:03:14.992Z,7.10
2018-04-22T16:05:42.493Z,6.23
2018-04-22T16:08:09.988Z,7.40
2018-04-22T16:10:38.390Z,7.23
2018-04-22T16:13:05.927Z,7.73
2018-04-22T16:15:33.526Z,7.53
2018-04-22T16:18:01.075Z,6.90
2018-04-22T16:20:28.599Z,7.47
2018-04-22T16:22:56.972Z,7.07
2018-04-22T16:25:25.259Z,7.30
2018-04-22T16:27:53.554Z,8.40
2018-04-22T16:30:21.118Z,8.80
2018-04-22T16:32:49.371Z,8.67
2018-04-22T16:35:16.957Z,8.97
2018-04-22T16:37:44.395Z,8.30
2018-04-22T16:40:12.754Z,9.73
2018-04-22T16:42:40.238Z,8.07
2018-04-22T16:45:07.907Z,9.50
2018-04-22T16:47:36.155Z,9.00
2018-04-22T16:50:03.627Z,8.30
2018-04-22T16:52:31.929Z,10.40
2018-04-22T16:54:59.550Z,9.63
2018-04-22T16:57:27.814Z,9.60
2018-04-22T16:59:55.381Z,8.83
2018-04-22T17:02:22.867Z,8.70
2018-04-22T17:04:51.121Z,9.40
2018-04-22T17:07:19.508Z,9.00
2018-04-22T17:09:47.852Z,9.10
2018-04-22T17:12:16.025Z,9.70
2018-04-22T17:14:44.343Z,8.93
2018-04-22T17:17:12.642Z,9.30
2018-04-22T17:19:40.294Z,9.63
2018-04-22T17:22:07.844Z,8.60
2018-04-22T17:24:35.565Z,10.03
2018-04-22T17:27:03.149Z,8.87
2018-04-22T17:29:30.774Z,8.50
2018-04-22T17:31:58.474Z,7.97
2018-04-22T17:34:26.024Z,8.80
2018-04-22T17:36:53.750Z,7.40
2018-04-22T17:39:21.273Z,7.60
2018-04-22T17:41:49.537Z,7.17
2018-04-22T17:44:18.011Z,6.67
2018-04-22T17:46:46.314Z,7.33
2018-04-22T17:49:13.822Z,6.40
2018-04-22T17:51:41.384Z,7.07
2018-04-22T17:54:08.933Z,5.57
2018-04-22T17:56:36.523Z,6.63
2018-04-22T17:59:04.076Z,5.70
2018-04-22T18:01:32.394Z,4.97
2018-04-22T18:03:59.912Z,5.07
2018-04-22T18:06:28.236Z,5.07
2018-04-22T18:08:56.699Z,4.83
2018-04-22T18:11:24.301Z,4.50
2018-04-22T18:13:51.873Z,5.30
2018-04-22T18:16:19.520Z,4.97
2018-04-22T18:18:47.191Z,5.10
2018-04-22T18:21:14.663Z,4.70
2018-04-22T18:23:42.269Z,4.37
2018-04-22T18:26:09.833Z,4.30
2018-04-22T18:28:37.372Z,5.00
2018-04-22T18:31:04.878Z,4.73
2018-04-22T18:33:32.430Z,5.53
2018-04-22T18:36:00.018Z,4.63
2018-04-22T18:38:28.297Z,4.73
2018-04-22T18:40:56.562Z,4.70
2018-04-22T18:43:24.857Z,4.73
2018-04-22T18:45:52.412Z,4.77
2018-04-22T18:48:19.925Z,4.90
2018-04-22T18:50:47.663Z,4.60
2018-04-22T18:53:15.172Z,5.20
2018-04-22T18:55:42.685Z,5.37
2018-04-22T18:58:10.223Z,4.83
2018-04-22T19:00:38.480Z,5.10
2018-04-22T19:03:05.981Z,4.80
2018-04-22T19:05:33.463Z,4.50
2018-04-22T19:08:01.006Z,4.00
2018-04-22T19:10:28.507Z,4.97
2018-04-22T19:12:57.385Z,4.87
2018-04-22T19:15:24.906Z,4.77
2018-04-22T19:17:52.400Z,5.33
2018-04-22T19:20:20.720Z,6.00
2018-04-22T19:22:48.423Z,4.20
2018-04-22T19:25:15.917Z,4.80
2018-04-22T19:27:43.740Z,4.90
2018-04-22T19:30:11.244Z,4.87
2018-04-22T19:32:38.765Z,5.90
2018-04-22T19:35:06.258Z,4.70
2018-04-22T19:37:33.745Z,4.97
2018-04-22T19:40:01.320Z,4.90
2018-04-22T19:42:28.786Z,5.40
2018-04-22T19:44:56.506Z,5.47
2018-04-22T19:47:25.639Z,5.90
2018-04-22T19:49:53.124Z,6.00
2018-04-22T19:52:20.608Z,6.73
2018-04-22T19:54:48.853Z,7.10
2018-04-22T19:57:17.461Z,6.83
2018-04-22T19:59:45.765Z,7.83
2018-04-22T20:02:14.031Z,6.60
2018-04-22T20:04:42.280Z,6.97
2018-04-22T20:07:09.792Z,7.23
2018-04-22T20:09:37.261Z,6.30
2018-04-22T20:12:04.836Z,6.87
2018-04-22T20:14:32.298Z,6.80
2018-04-22T20:17:00.282Z,7.20
2018-04-22T20:19:28.589Z,7.30
2018-04-22T20:21:57.479Z,6.90
2018-04-22T20:24:26.489Z,6.80
2018-04-22T20:26:55.828Z,7.07
2018-04-22T20:29:23.289Z,7.40
2018-04-22T20:31:51.059Z,7.43
2018-04-22T20:34:18.529Z,9.13
2018-04-22T20:36:46.015Z,7.13
2018-04-22T20:39:14.248Z,7.30
2018-04-22T20:41:41.729Z,8.77
2018-04-22T20:44:09.988Z,9.23
2018-04-22T20:46:37.478Z,8.70
2018-04-22T20:49:04.979Z,8.70
2018-04-22T20:51:32.448Z,8.00
2018-04-22T20:54:00.305Z,8.90
2018-04-22T20:56:27.798Z,9.00
2018-04-22T20:58:56.071Z,8.20
2018-04-22T21:01:24.324Z,8.90
2018-04-22T21:03:51.805Z,8.40
2018-04-22T21:06:20.056Z,9.40
2018-04-22T21:08:47.580Z,9.40
2018-04-22T21:11:15.779Z,10.53
2018-04-22T21:13:43.263Z,10.63
2018-04-22T21:16:10.911Z,9.20
2018-04-22T21:18:38.400Z,11.33
2018-04-22T21:21:06.666Z,9.90
2018-04-22T21:23:34.904Z,10.30
2018-04-22T21:26:02.712Z,9.67
2018-04-22T21:28:30.981Z,11.33
2018-04-22T21:30:58.501Z,10.07
2018-04-22T21:33:26.003Z,10.30
2018-04-22T21:35:54.285Z,10.37
2018-04-22T21:38:21.768Z,10.77
2018-04-22T21:40:49.238Z,9.07
2018-04-22T21:43:16.727Z,10.60
2018-04-22T21:45:44.213Z,10.00
2018-04-22T21:48:12.492Z,10.10
2018-04-22T21:50:40.748Z,11.07
2018-04-22T21:53:08.220Z,10.60
2018-04-22T21:55:36.480Z,10.30
2018-04-22T21:58:04.836Z,11.60
2018-04-22T22:00:32.307Z,12.57
2018-04-22T22:03:01.297Z,11.13
2018-04-22T22:05:29.571Z,11.60
2018-04-22T22:07:57.048Z,11.93
2018-04-22T22:10:25.313Z,10.47
2018-04-22T22:12:52.787Z,10.33
2018-04-22T22:15:21.045Z,11.57
2018-04-22T22:17:48.524Z,13.77
2018-04-22T22:20:16.771Z,11.50
2018-04-22T22:22:44.248Z,12.70
2018-04-22T22:25:12.488Z,15.07
2018-04-22T22:27:39.968Z,14.37
2018-04-22T22:30:08.214Z,13.90
2018-04-22T22:32:35.707Z,13.13
2018-04-22T22:35:04.071Z,12.10
2018-04-22T22:37:31.547Z,11.83
2018-04-22T22:39:59.820Z,12.10
2018-04-22T22:42:28.084Z,13.00
2018-04-22T22:44:55.571Z,14.03
2018-04-22T22:47:23.063Z,11.33
2018-04-22T22:49:50.524Z,13.73
2018-04-22T22:52:18.019Z,13.37
2018-04-22T22:54:45.532Z,13.40
2018-04-22T22:57:13.004Z,12.17
2018-04-22T22:59:40.503Z,14.10
2018-04-22T23:02:08.745Z,12.53
2018-04-22T23:04:36.235Z,12.37
2018-04-22T23:07:04.671Z,12.00
2018-04-22T23:09:32.176Z,12.93
2018-04-22T23:12:00.422Z,12.60
2018-04-22T23:14:27.900Z,12.00
2018-04-22T23:16:56.136Z,11.87
2018-04-22T23:19:23.634Z,11.40
2018-04-22T23:21:51.100Z,11.07
2018-04-22T23:24:18.605Z,11.60
2018-04-22T23:26:46.081Z,10.90
2018-04-22T23:29:13.580Z,10.67
2018-04-22T23:31:41.069Z,11.60
2018-04-22T23:34:08.536Z,11.53
2018-04-22T23:36:36.036Z,10.77
2018-04-22T23:39:03.506Z,10.23
2018-04-22T23:41:31.739Z,9.97
2018-04-22T23:43:59.211Z,9.67
2018-04-22T23:46:26.684Z,9.90
2018-04-22T23:48:54.920Z,10.40
2018-04-22T23:51:22.400Z,10.80
2018-04-22T23:53:49.867Z,10.50
2018-04-22T23:56:18.117Z,11.10
2018-04-22T23:58:45.610Z,11.57
